Time;durP1;ratioP1;P1;durP2;ratioP2;P2;SDS_P1;SDS_P2;PMS_P1;PMS_P2;Temp;Humidity;BMP_temperature;BMP_pressure;BME280_temperature;BME280_humidity;BME280_pressure;Samples;Min_cycle;Max_cycle;Signal;HPM_P1;HPM_P2
2023/11/03 00:00:08;;;;;;;1.67;0.40;;;10.80;99.90;;;;;;5074463;28;20154;-88
2023/11/03 00:02:38;;;;;;;1.27;0.52;;;10.80;99.90;;;;;;5074637;28;20107;-87
2023/11/03 00:05:08;;;;;;;0.77;0.50;;;10.80;99.90;;;;;;5074349;28;20062;-88
2023/11/03 00:07:35;;;;;;;4.10;0.50;;;10.80;99.90;;;;;;5103398;28;20036;-89
2023/11/03 00:10:05;;;;;;;0.90;0.40;;;10.80;99.90;;;;;;5097281;28;20024;-88
2023/11/03 00:12:33;;;;;;;0.77;0.47;;;10.80;99.90;;;;;;5094015;28;20012;-88
2023/11/03 00:14:59;;;;;;;1.13;0.43;;;10.80;99.90;;;;;;5116391;28;20004;-87
2023/11/03 00:17:27;;;;;;;1.48;0.60;;;10.90;99.90;;;;;;5087164;28;20072;-89
2023/11/03 00:19:53;;;;;;;0.63;0.32;;;10.80;99.90;;;;;;5074845;28;20035;-89
2023/11/03 00:22:23;;;;;;;1.83;0.50;;;10.80;99.90;;;;;;5093118;28;20111;-88
2023/11/03 00:24:51;;;;;;;0.68;0.40;;;10.80;99.90;;;;;;5093369;28;20470;-89
2023/11/03 00:27:17;;;;;;;2.85;0.50;;;10.80;99.90;;;;;;5095686;27;20039;-88
2023/11/03 00:29:43;;;;;;;1.63;0.40;;;10.80;99.90;;;;;;5073885;28;20036;-88
2023/11/03 00:32:09;;;;;;;0.47;0.30;;;10.80;99.90;;;;;;5088702;28;20494;-88
2023/11/03 00:34:36;;;;;;;1.60;0.60;;;10.70;99.90;;;;;;5076850;28;20476;-87
2023/11/03 00:37:07;;;;;;;1.13;0.57;;;10.80;99.90;;;;;;5093774;28;20142;-89
2023/11/03 00:39:33;;;;;;;1.73;0.70;;;10.80;99.90;;;;;;5093550;28;20118;-88
2023/11/03 00:42:06;;;;;;;3.10;0.60;;;10.80;99.90;;;;;;5093480;28;20055;-88
2023/11/03 00:44:34;;;;;;;1.80;0.50;;;10.80;99.90;;;;;;5077140;28;20028;-88
2023/11/03 00:46:59;;;;;;;1.17;0.43;;;10.80;99.90;;;;;;5088599;28;20025;-87
2023/11/03 00:49:27;;;;;;;1.55;0.55;;;10.80;99.90;;;;;;5073954;28;20185;-87
2023/11/03 00:51:54;;;;;;;2.58;0.63;;;10.90;99.90;;;;;;5090620;28;20089;-89
2023/11/03 00:54:19;;;;;;;1.25;0.40;;;10.90;99.90;;;;;;5093332;28;20479;-89
2023/11/03 00:56:45;;;;;;;2.15;0.60;;;10.80;99.90;;;;;;5094198;28;20036;-88
2023/11/03 00:59:11;;;;;;;1.20;0.50;;;10.80;99.90;;;;;;5093815;28;20028;-88
2023/11/03 01:01:38;;;;;;;2.30;0.75;;;10.80;99.90;;;;;;5095017;28;20056;-89
2023/11/03 01:04:05;;;;;;;1.90;0.60;;;10.80;99.90;;;;;;5089297;28;20447;-89
2023/11/03 01:06:31;;;;;;;1.33;0.50;;;10.80;99.90;;;;;;5093738;28;20085;-88
2023/11/03 01:09:02;;;;;;;0.80;0.50;;;10.80;99.90;;;;;;5093416;28;20471;-88
2023/11/03 01:11:28;;;;;;;1.27;0.32;;;10.90;99.90;;;;;;5093357;28;20081;-88
2023/11/03 01:13:55;;;;;;;0.55;0.30;;;10.80;99.90;;;;;;5094523;28;20024;-87
2023/11/03 01:16:22;;;;;;;1.65;0.55;;;10.70;99.90;;;;;;5094104;28;20483;-88
2023/11/03 01:18:49;;;;;;;1.73;0.40;;;10.70;99.90;;;;;;5093296;28;20034;-90
2023/11/03 01:21:16;;;;;;;1.13;0.40;;;10.80;99.90;;;;;;5090265;28;20024;-88
2023/11/03 01:23:43;;;;;;;0.90;0.38;;;10.80;99.90;;;;;;5093433;28;20032;-89
2023/11/03 01:26:12;;;;;;;2.42;0.50;;;10.80;99.90;;;;;;5093267;28;20111;-88
2023/11/03 01:28:38;;;;;;;1.30;0.60;;;10.80;99.90;;;;;;5094405;28;20056;-89
2023/11/03 01:31:05;;;;;;;1.60;0.40;;;10.80;99.90;;;;;;5093593;28;20051;-87
2023/11/03 01:33:31;;;;;;;1.15;0.40;;;10.80;99.90;;;;;;5084697;28;20021;-90
2023/11/03 01:35:57;;;;;;;1.08;0.32;;;10.80;99.90;;;;;;5063831;28;20541;-89
2023/11/03 01:38:24;;;;;;;1.27;0.40;;;10.80;99.90;;;;;;5081451;28;20113;-88
2023/11/03 01:40:50;;;;;;;0.82;0.40;;;10.80;99.90;;;;;;5081568;28;20033;-90
2023/11/03 01:43:15;;;;;;;0.90;0.40;;;10.80;99.90;;;;;;5100774;28;20080;-89
2023/11/03 01:45:41;;;;;;;1.38;0.47;;;10.80;99.90;;;;;;5101692;28;20013;-88
2023/11/03 01:48:07;;;;;;;1.45;0.40;;;10.80;99.90;;;;;;5101554;28;20044;-89
2023/11/03 01:50:35;;;;;;;1.08;0.35;;;10.80;99.90;;;;;;5103534;28;20035;-89
2023/11/03 01:53:02;;;;;;;3.75;0.85;;;10.80;99.90;;;;;;5078082;28;20036;-89
2023/11/03 01:55:30;;;;;;;1.27;0.50;;;10.80;99.90;;;;;;5097639;28;20446;-88
2023/11/03 01:57:57;;;;;;;4.32;0.70;;;10.80;99.90;;;;;;5097342;28;20028;-88
2023/11/03 02:00:24;;;;;;;2.50;0.60;;;10.80;99.90;;;;;;5096851;28;20035;-88
2023/11/03 02:02:53;;;;;;;1.45;0.57;;;10.80;99.90;;;;;;5098358;28;20020;-89
2023/11/03 02:05:18;;;;;;;0.98;0.40;;;10.80;99.90;;;;;;5096399;28;20032;-90
2023/11/03 02:07:46;;;;;;;0.82;0.35;;;10.80;99.90;;;;;;5096413;28;20020;-88
2023/11/03 02:10:12;;;;;;;2.35;0.60;;;10.80;99.90;;;;;;5096973;28;20024;-89
2023/11/03 02:12:38;;;;;;;1.10;0.38;;;10.80;99.90;;;;;;5091064;28;20020;-90
2023/11/03 02:15:06;;;;;;;0.63;0.20;;;10.80;99.90;;;;;;5089596;28;20115;-88
2023/11/03 02:17:33;;;;;;;1.98;0.50;;;10.80;99.90;;;;;;5076318;28;20040;-88
2023/11/03 02:20:06;;;;;;;1.92;0.40;;;10.90;99.90;;;;;;5095559;28;20154;-87
2023/11/03 02:22:32;;;;;;;3.20;0.93;;;10.80;99.90;;;;;;5096731;28;20020;-88
2023/11/03 02:24:58;;;;;;;0.90;0.40;;;10.80;99.90;;;;;;5085737;28;20495;-88
2023/11/03 02:27:23;;;;;;;1.08;0.40;;;10.90;99.90;;;;;;5075118;28;20130;-87
2023/11/03 02:29:49;;;;;;;2.53;0.65;;;10.80;99.90;;;;;;5079794;28;20456;-88
2023/11/03 02:32:15;;;;;;;1.83;0.60;;;10.90;99.90;;;;;;5077991;28;20028;-87
2023/11/03 02:34:40;;;;;;;1.77;0.80;;;10.80;99.90;;;;;;5093537;28;20102;-88
2023/11/03 02:37:06;;;;;;;1.58;0.40;;;10.80;99.90;;;;;;5095919;28;20029;-89
2023/11/03 02:39:33;;;;;;;1.05;0.50;;;10.80;99.90;;;;;;5079058;28;20028;-88
2023/11/03 02:41:58;;;;;;;0.77;0.45;;;10.90;99.90;;;;;;5079661;28;20081;-87
2023/11/03 02:44:24;;;;;;;1.85;0.45;;;10.90;99.90;;;;;;5094659;28;20031;-87
2023/11/03 02:46:50;;;;;;;2.25;0.47;;;10.90;99.90;;;;;;5091693;28;20034;-88
2023/11/03 02:49:16;;;;;;;2.60;0.50;;;10.90;99.90;;;;;;5058023;28;20587;-88
2023/11/03 02:51:41;;;;;;;2.78;0.63;;;10.90;99.90;;;;;;5093075;28;20388;-87
2023/11/03 02:54:07;;;;;;;2.20;0.60;;;10.90;99.90;;;;;;5076898;28;20021;-87
2023/11/03 02:56:34;;;;;;;1.10;0.55;;;10.90;99.90;;;;;;5076896;28;20029;-87
2023/11/03 02:58:59;;;;;;;2.53;0.40;;;10.90;99.90;;;;;;5090843;28;20063;-88
2023/11/03 03:01:27;;;;;;;1.40;0.50;;;10.90;99.90;;;;;;5095782;28;20050;-87
2023/11/03 03:03:52;;;;;;;0.50;0.30;;;11.00;99.90;;;;;;5078585;28;20032;-88
2023/11/03 03:06:18;;;;;;;1.67;0.60;;;11.00;99.90;;;;;;5082073;28;20042;-89
2023/11/03 03:08:48;;;;;;;2.05;0.57;;;11.00;99.90;;;;;;5096357;28;20429;-88
2023/11/03 03:11:16;;;;;;;3.25;0.90;;;11.00;99.90;;;;;;5097472;28;20035;-87
2023/11/03 03:13:43;;;;;;;2.45;0.50;;;11.00;99.90;;;;;;5097046;28;20024;-87
2023/11/03 03:16:10;;;;;;;0.93;0.40;;;11.00;99.90;;;;;;5102902;28;20085;-88
2023/11/03 03:18:41;;;;;;;1.70;0.50;;;11.00;99.90;;;;;;5115489;28;20007;-88
2023/11/03 03:21:07;;;;;;;2.58;0.80;;;11.00;99.90;;;;;;5119653;28;20038;-88
2023/11/03 03:23:33;;;;;;;2.35;0.55;;;11.10;99.90;;;;;;5112405;28;20452;-87
2023/11/03 03:26:01;;;;;;;2.00;0.70;;;11.10;99.90;;;;;;5079123;28;20119;-88
2023/11/03 03:28:29;;;;;;;1.25;0.45;;;11.10;99.90;;;;;;5095578;28;20083;-88
2023/11/03 03:31:00;;;;;;;2.97;1.00;;;11.10;99.90;;;;;;5077997;28;20031;-88
2023/11/03 03:33:29;;;;;;;2.97;0.85;;;11.10;99.90;;;;;;5092361;28;20087;-89
2023/11/03 03:35:54;;;;;;;2.10;0.63;;;11.00;99.90;;;;;;5094720;28;20024;-87
2023/11/03 03:38:23;;;;;;;1.85;0.55;;;11.10;99.90;;;;;;5095104;28;20028;-89
2023/11/03 03:40:49;;;;;;;1.77;0.75;;;11.10;99.90;;;;;;5092287;28;20036;-88
2023/11/03 03:43:15;;;;;;;2.88;0.80;;;11.10;99.90;;;;;;5074726;28;20028;-88
2023/11/03 03:45:41;;;;;;;3.03;0.93;;;11.10;99.90;;;;;;5074004;28;20108;-87
2023/11/03 03:48:07;;;;;;;1.52;0.70;;;11.00;99.90;;;;;;5084146;28;20051;-88
2023/11/03 03:50:32;;;;;;;3.28;0.80;;;11.00;99.90;;;;;;5080480;28;20021;-88
2023/11/03 03:53:00;;;;;;;2.05;0.80;;;11.00;99.90;;;;;;5074268;28;20020;-88
2023/11/03 03:55:26;;;;;;;2.08;0.80;;;11.00;99.90;;;;;;5095980;28;20028;-87
2023/11/03 03:57:52;;;;;;;2.10;0.65;;;11.10;99.90;;;;;;5076730;28;20047;-88
2023/11/03 04:00:20;;;;;;;1.63;0.82;;;11.10;99.90;;;;;;5077665;28;20020;-87
2023/11/03 04:02:46;;;;;;;3.45;1.05;;;11.10;99.90;;;;;;5093553;28;20031;-87
2023/11/03 04:05:12;;;;;;;2.08;0.93;;;11.10;99.90;;;;;;5085273;28;20025;-87
2023/11/03 04:07:38;;;;;;;3.28;0.98;;;11.10;99.90;;;;;;5079143;28;20547;-87
2023/11/03 04:10:07;;;;;;;3.70;0.98;;;11.10;99.90;;;;;;5094298;28;20111;-88
2023/11/03 04:12:35;;;;;;;3.95;0.93;;;11.10;99.90;;;;;;5094357;28;20055;-88
2023/11/03 04:15:01;;;;;;;2.00;0.77;;;11.10;99.90;;;;;;5057614;28;20028;-89
2023/11/03 04:17:26;;;;;;;2.58;0.68;;;11.10;99.90;;;;;;5089601;28;20100;-89
2023/11/03 04:19:52;;;;;;;3.47;1.00;;;11.00;99.90;;;;;;5094072;28;20055;-89
2023/11/03 04:22:20;;;;;;;4.55;1.30;;;11.10;99.90;;;;;;5084143;28;20021;-88
2023/11/03 04:24:46;;;;;;;2.70;1.00;;;11.10;99.90;;;;;;5073713;28;20028;-88
2023/11/03 04:27:12;;;;;;;2.85;0.82;;;11.00;99.90;;;;;;5074547;28;20029;-88
2023/11/03 04:29:42;;;;;;;2.17;0.70;;;11.00;99.90;;;;;;5085664;28;20123;-88
2023/11/03 04:32:08;;;;;;;4.93;1.00;;;11.00;99.90;;;;;;5086065;28;20032;-87
2023/11/03 04:34:33;;;;;;;3.28;1.23;;;11.00;99.90;;;;;;5091916;28;20020;-89
2023/11/03 04:36:59;;;;;;;4.47;1.30;;;10.90;99.90;;;;;;5077251;28;20056;-87
2023/11/03 04:39:27;;;;;;;2.50;0.65;;;10.90;99.90;;;;;;5093872;28;20474;-88
2023/11/03 04:41:53;;;;;;;2.47;0.90;;;10.90;99.90;;;;;;5074827;28;20119;-88
2023/11/03 04:44:19;;;;;;;2.28;1.00;;;10.90;99.90;;;;;;5074247;28;20056;-89
2023/11/03 04:46:47;;;;;;;2.53;1.00;;;10.90;99.90;;;;;;5077616;28;20024;-90
2023/11/03 04:49:17;;;;;;;3.35;0.75;;;10.90;99.90;;;;;;5076790;28;20079;-89
2023/11/03 04:51:45;;;;;;;2.92;0.80;;;10.90;99.90;;;;;;5109204;28;20083;-88
2023/11/03 04:54:11;;;;;;;3.70;0.90;;;10.80;99.90;;;;;;5101472;28;20032;-88
2023/11/03 04:56:37;;;;;;;2.60;0.88;;;10.80;99.90;;;;;;5118034;28;20036;-88
2023/11/03 04:59:05;;;;;;;3.03;0.90;;;10.80;99.90;;;;;;5116944;28;20040;-89
2023/11/03 05:01:31;;;;;;;2.60;0.90;;;10.80;99.90;;;;;;5094084;28;20031;-89
2023/11/03 05:03:57;;;;;;;3.28;0.98;;;10.80;99.90;;;;;;5087399;28;20024;-90
2023/11/03 05:06:25;;;;;;;2.72;1.10;;;10.80;99.90;;;;;;5093613;28;20490;-87
2023/11/03 05:08:51;;;;;;;3.13;0.90;;;10.80;99.90;;;;;;5093088;28;20111;-88
2023/11/03 05:11:19;;;;;;;4.68;1.58;;;10.80;99.90;;;;;;5076286;28;20104;-88
2023/11/03 05:13:45;;;;;;;3.95;1.10;;;10.80;99.90;;;;;;5093298;28;20028;-89
2023/11/03 05:16:12;;;;;;;1.88;0.73;;;10.80;99.90;;;;;;5093474;28;20020;-89
2023/11/03 05:18:44;;;;;;;3.58;1.20;;;10.80;99.90;;;;;;5093140;28;20020;-89
2023/11/03 05:21:14;;;;;;;4.80;1.38;;;10.80;99.90;;;;;;5081806;28;20155;-89
2023/11/03 05:23:41;;;;;;;3.85;1.13;;;10.70;99.90;;;;;;5086258;28;20024;-88
2023/11/03 05:26:13;;;;;;;3.55;1.10;;;10.70;99.90;;;;;;5093483;28;20020;-87
2023/11/03 05:28:40;;;;;;;3.67;1.23;;;10.70;99.90;;;;;;5093188;28;20040;-89
2023/11/03 05:31:06;;;;;;;4.90;1.17;;;10.70;99.90;;;;;;5093101;28;20051;-91
2023/11/03 05:33:34;;;;;;;5.72;1.50;;;10.70;99.90;;;;;;5093142;28;20020;-88
2023/11/03 05:36:00;;;;;;;3.42;1.25;;;10.70;99.90;;;;;;5093313;28;20024;-89
2023/11/03 05:38:28;;;;;;;4.00;1.35;;;10.70;99.90;;;;;;5091508;28;20069;-90
2023/11/03 05:40:56;;;;;;;4.00;1.20;;;10.70;99.90;;;;;;5064333;28;20047;-91
2023/11/03 05:43:22;;;;;;;3.85;1.02;;;10.70;99.90;;;;;;5062356;28;20027;-89
2023/11/03 05:45:48;;;;;;;2.63;1.00;;;10.80;99.90;;;;;;5075086;28;20020;-90
2023/11/03 05:48:13;;;;;;;4.07;1.10;;;10.70;99.90;;;;;;5072706;28;20048;-90
2023/11/03 05:50:42;;;;;;;3.30;1.10;;;10.70;99.90;;;;;;5074533;28;20035;-90
2023/11/03 05:53:08;;;;;;;4.82;1.30;;;10.70;99.90;;;;;;5088524;28;20047;-88
2023/11/03 05:55:34;;;;;;;3.75;1.05;;;10.70;99.90;;;;;;5093532;28;20493;-89
2023/11/03 05:57:59;;;;;;;4.05;1.20;;;10.80;99.90;;;;;;5093948;28;20028;-89
2023/11/03 06:00:28;;;;;;;2.58;1.30;;;10.80;99.90;;;;;;5092230;28;20048;-88
2023/11/03 06:02:57;;;;;;;4.05;1.30;;;10.80;99.90;;;;;;5101971;28;20043;-90
2023/11/03 06:05:22;;;;;;;3.30;1.40;;;10.80;99.90;;;;;;5112371;28;20009;-90
2023/11/03 06:07:51;;;;;;;5.10;1.58;;;10.80;99.90;;;;;;5090541;28;20035;-91
2023/11/03 06:10:17;;;;;;;3.92;1.30;;;10.80;99.90;;;;;;5083031;28;20387;-91
2023/11/03 06:12:45;;;;;;;4.95;1.85;;;10.90;99.90;;;;;;5094942;28;20091;-88
2023/11/03 06:15:13;;;;;;;5.47;1.60;;;10.90;99.90;;;;;;5098189;28;20096;-88
2023/11/03 06:17:42;;;;;;;7.65;1.63;;;10.80;99.90;;;;;;5085155;28;20033;-88
2023/11/03 06:20:08;;;;;;;4.57;1.60;;;10.90;99.90;;;;;;5094019;28;20020;-88
2023/11/03 06:22:34;;;;;;;3.13;1.38;;;10.90;99.90;;;;;;5089501;28;20032;-88
2023/11/03 06:24:59;;;;;;;3.22;1.20;;;10.90;99.90;;;;;;5093917;28;20123;-88
2023/11/03 06:27:25;;;;;;;4.00;1.23;;;10.90;99.90;;;;;;5104916;28;20028;-90
2023/11/03 06:29:53;;;;;;;4.57;1.30;;;10.90;99.90;;;;;;5110020;28;20118;-90
2023/11/03 06:32:22;;;;;;;6.57;1.27;;;10.90;99.90;;;;;;5094371;28;20117;-89
2023/11/03 06:34:51;;;;;;;5.43;1.35;;;10.90;99.90;;;;;;5060583;28;20032;-88
2023/11/03 06:37:19;;;;;;;4.70;1.42;;;10.90;99.90;;;;;;5092092;28;20052;-90
2023/11/03 06:40:00;;;;;;;;;;;;;;;;;;;;;
2023/11/03 06:42:31;;;;;;;2.85;1.00;;;10.90;99.90;;;;;;5089022;28;20029;-90
2023/11/03 06:45:16;;;;;;;4.38;1.52;;;10.90;99.90;;;;;;5076179;28;20463;-88
2023/11/03 06:47:53;;;;;;;4.85;1.45;;;10.90;99.90;;;;;;5077014;28;20132;-91
2023/11/03 06:50:19;;;;;;;5.78;1.17;;;10.90;99.90;;;;;;5085534;28;20020;-91
2023/11/03 06:52:57;;;;;;;3.55;1.33;;;10.90;99.90;;;;;;5095721;28;20016;-90
2023/11/03 06:55:25;;;;;;;4.05;1.30;;;10.80;99.90;;;;;;5095500;28;20042;-89
2023/11/03 06:57:59;;;;;;;4.93;1.20;;;10.80;99.90;;;;;;5066178;28;20025;-90
2023/11/03 07:00:35;;;;;;;;;;;;;;;;;;;;;
2023/11/03 07:03:03;;;;;;;4.22;1.00;;;10.90;99.90;;;;;;5094248;28;20039;-91
2023/11/03 07:05:30;;;;;;;4.88;1.20;;;10.90;99.90;;;;;;5078877;28;20115;-88
2023/11/03 07:07:58;;;;;;;3.33;1.42;;;10.90;99.90;;;;;;5095353;28;20024;-88
2023/11/03 07:10:24;;;;;;;5.35;1.35;;;10.90;99.90;;;;;;5079316;28;20044;-89
2023/11/03 07:12:52;;;;;;;4.60;1.38;;;10.90;99.90;;;;;;5095090;28;20056;-91
2023/11/03 07:15:18;;;;;;;7.22;1.95;;;10.90;99.90;;;;;;5077969;28;20119;-90
2023/11/03 07:17:49;;;;;;;4.90;1.67;;;11.00;99.90;;;;;;5096684;28;20032;-93
2023/11/03 07:20:16;;;;;;;5.82;1.65;;;10.90;99.90;;;;;;5093358;28;20093;-90
2023/11/03 07:22:41;;;;;;;3.40;1.50;;;10.90;99.90;;;;;;5095427;28;20447;-89
2023/11/03 07:25:07;;;;;;;5.63;1.55;;;11.00;99.90;;;;;;5095076;28;20020;-89
2023/11/03 07:27:33;;;;;;;5.55;1.40;;;11.00;99.90;;;;;;5091579;28;20028;-89
2023/11/03 07:30:01;;;;;;;4.28;1.40;;;10.90;99.90;;;;;;5083150;28;20478;-90
2023/11/03 07:32:39;;;;;;;4.00;1.27;;;10.90;99.90;;;;;;5087400;28;20020;-90
2023/11/03 07:35:06;;;;;;;5.68;1.50;;;10.90;99.90;;;;;;5077945;28;20052;-89
2023/11/03 07:37:32;;;;;;;3.05;1.20;;;10.90;99.90;;;;;;5094933;28;20114;-89
2023/11/03 07:40:00;;;;;;;4.10;1.42;;;10.90;99.90;;;;;;5095053;28;20024;-87
2023/11/03 07:42:26;;;;;;;4.45;1.83;;;10.90;99.90;;;;;;5096638;28;20035;-88
2023/11/03 07:44:57;;;;;;;3.92;1.30;;;10.90;99.90;;;;;;5095175;28;20020;-89
2023/11/03 07:47:23;;;;;;;9.65;1.40;;;10.90;99.90;;;;;;5094482;28;20089;-89
2023/11/03 07:49:53;;;;;;;4.75;1.30;;;10.90;99.90;;;;;;5087229;28;20033;-88
2023/11/03 07:52:22;;;;;;;5.45;1.73;;;10.90;99.90;;;;;;5092105;28;20055;-89
2023/11/03 07:54:47;;;;;;;5.95;1.50;;;10.90;99.90;;;;;;5100823;28;20024;-90
2023/11/03 07:57:13;;;;;;;6.55;1.70;;;11.00;99.90;;;;;;5098890;28;20073;-89
2023/11/03 07:59:42;;;;;;;7.43;1.58;;;10.90;99.90;;;;;;5119650;28;20047;-89
2023/11/03 08:02:10;;;;;;;3.28;1.33;;;11.00;99.90;;;;;;5118484;28;20043;-89
2023/11/03 08:04:35;;;;;;;6.85;1.70;;;11.00;99.90;;;;;;5118768;28;20034;-89
2023/11/03 08:07:01;;;;;;;4.40;1.75;;;11.00;99.90;;;;;;5114857;28;20020;-88
2023/11/03 08:09:39;;;;;;;;;;;;;;;;;;;;;
2023/11/03 08:12:08;;;;;;;4.32;1.20;;;11.00;99.90;;;;;;5095750;28;20026;-88
2023/11/03 08:14:35;;;;;;;5.80;1.40;;;11.10;99.90;;;;;;5074186;28;20106;-88
2023/11/03 08:17:10;;;;;;;;;;;;;;;;;;;;;
2023/11/03 08:19:47;;;;;;;5.50;1.88;;;11.00;99.90;;;;;;5075102;28;20020;-88
2023/11/03 08:22:16;;;;;;;6.43;1.63;;;11.00;99.90;;;;;;5088845;28;20078;-89
2023/11/03 08:24:46;;;;;;;3.10;1.70;;;11.10;99.90;;;;;;5094560;28;20021;-88
2023/11/03 08:27:14;;;;;;;6.78;1.40;;;11.10;99.90;;;;;;5094490;28;20363;-88
2023/11/03 08:29:50;;;;;;;5.30;1.23;;;11.10;99.90;;;;;;5092454;28;20032;-89
2023/11/03 08:32:16;;;;;;;3.75;1.42;;;11.10;99.90;;;;;;5093889;28;20052;-88
2023/11/03 08:34:42;;;;;;;10.25;1.73;;;11.10;99.90;;;;;;5094566;28;20482;-88
2023/11/03 08:37:11;;;;;;;5.30;1.48;;;11.20;99.90;;;;;;5079781;28;20027;-89
2023/11/03 08:39:37;;;;;;;6.13;2.00;;;11.20;99.90;;;;;;5088963;28;20032;-89
2023/11/03 08:42:04;;;;;;;5.78;1.30;;;11.20;99.90;;;;;;5082206;28;20023;-89
2023/11/03 08:44:34;;;;;;;5.43;1.15;;;11.20;99.90;;;;;;5090805;28;20027;-88
2023/11/03 08:47:00;;;;;;;7.45;1.55;;;11.30;99.90;;;;;;5093055;28;20051;-90
2023/11/03 08:49:27;;;;;;;7.07;1.55;;;11.40;99.90;;;;;;5089693;28;20471;-89
2023/11/03 08:51:54;;;;;;;4.45;1.40;;;11.40;99.90;;;;;;5073497;28;20060;-88
2023/11/03 08:54:19;;;;;;;5.40;1.33;;;11.50;99.90;;;;;;5093499;28;20025;-87
2023/11/03 08:56:50;;;;;;;5.70;1.85;;;11.60;99.90;;;;;;5093631;28;20016;-88
2023/11/03 08:59:15;;;;;;;3.38;1.23;;;11.60;99.90;;;;;;5093177;28;20028;-89
2023/11/03 09:01:44;;;;;;;4.40;1.45;;;11.70;99.90;;;;;;5089854;28;20104;-87
2023/11/03 09:04:13;;;;;;;12.10;2.05;;;11.80;99.90;;;;;;5089647;28;20028;-88
2023/11/03 09:06:38;;;;;;;6.45;1.75;;;11.80;99.90;;;;;;5080564;28;20063;-88
2023/11/03 09:09:04;;;;;;;5.22;1.33;;;11.90;99.90;;;;;;5093601;28;20068;-89
2023/11/03 09:11:30;;;;;;;6.85;1.90;;;12.00;99.90;;;;;;5076695;28;20395;-88
2023/11/03 09:13:59;;;;;;;11.20;2.53;;;12.00;99.90;;;;;;5090266;28;20029;-88
2023/11/03 09:16:25;;;;;;;8.30;1.80;;;12.00;99.90;;;;;;5070519;28;20033;-87
2023/11/03 09:18:52;;;;;;;5.72;1.40;;;12.00;99.90;;;;;;5085656;28;20379;-89
2023/11/03 09:21:18;;;;;;;7.82;2.00;;;12.10;99.90;;;;;;5093052;28;20103;-89
2023/11/03 09:23:44;;;;;;;6.05;1.90;;;12.10;99.90;;;;;;5093811;28;20387;-89
2023/11/03 09:26:10;;;;;;;8.48;2.08;;;12.10;99.90;;;;;;5093349;28;20016;-89
2023/11/03 09:28:38;;;;;;;5.10;1.52;;;12.20;99.90;;;;;;5090145;28;20464;-90
2023/11/03 09:31:05;;;;;;;5.35;1.90;;;12.20;99.90;;;;;;5088532;28;20031;-88
2023/11/03 09:33:33;;;;;;;4.93;1.52;;;12.30;99.90;;;;;;5105347;28;20016;-90
2023/11/03 09:36:01;;;;;;;10.38;2.22;;;12.30;99.90;;;;;;5110036;28;20009;-89
2023/11/03 09:38:31;;;;;;;5.57;2.30;;;12.30;99.90;;;;;;5097375;28;20040;-90
2023/11/03 09:41:00;;;;;;;6.50;1.80;;;12.40;99.90;;;;;;5106275;28;20019;-88
2023/11/03 09:43:37;;;;;;;7.10;1.80;;;12.40;99.90;;;;;;5105132;28;20452;-89
2023/11/03 09:46:03;;;;;;;7.15;1.88;;;12.40;99.90;;;;;;5093545;28;20027;-90
2023/11/03 09:48:32;;;;;;;5.93;1.65;;;12.40;99.90;;;;;;5082473;28;20056;-89
2023/11/03 09:51:15;;;;;;;5.95;1.65;;;12.40;99.90;;;;;;5073272;28;20103;-88
2023/11/03 09:53:48;;;;;;;6.38;1.75;;;12.40;99.90;;;;;;5075712;28;20043;-88
2023/11/03 09:56:22;;;;;;;6.07;1.90;;;12.40;99.90;;;;;;5093033;28;20032;-88
2023/11/03 09:58:48;;;;;;;5.50;1.70;;;12.30;99.90;;;;;;5096580;28;20093;-90
2023/11/03 10:01:16;;;;;;;6.47;1.88;;;12.30;99.90;;;;;;5097965;28;20027;-89
2023/11/03 10:03:43;;;;;;;4.00;1.35;;;12.30;99.90;;;;;;5079281;28;20078;-89
2023/11/03 10:06:12;;;;;;;9.18;2.08;;;12.40;99.90;;;;;;5076466;28;20422;-89
2023/11/03 10:08:39;;;;;;;6.93;1.60;;;12.30;99.90;;;;;;5076333;28;20043;-88
2023/11/03 10:11:09;;;;;;;7.53;1.58;;;12.40;99.90;;;;;;5076602;28;20095;-89
2023/11/03 10:13:37;;;;;;;8.43;1.88;;;12.40;99.90;;;;;;5076512;28;20047;-90
2023/11/03 10:16:26;;;;;;;5.43;1.63;;;12.50;99.90;;;;;;5095506;28;20024;-90
2023/11/03 10:18:52;;;;;;;5.10;1.70;;;12.50;99.90;;;;;;5069975;28;20028;-89
2023/11/03 10:21:23;;;;;;;8.45;2.10;;;12.50;99.90;;;;;;5092595;28;20043;-89
2023/11/03 10:23:51;;;;;;;8.10;1.60;;;12.50;99.90;;;;;;5096199;28;20110;-89
2023/11/03 10:26:17;;;;;;;7.70;1.88;;;12.50;99.90;;;;;;5079754;28;20025;-89
2023/11/03 10:28:45;;;;;;;6.82;1.67;;;12.50;99.90;;;;;;5096659;28;20055;-88
2023/11/03 10:31:14;;;;;;;5.28;1.63;;;12.40;99.90;;;;;;5096202;28;20035;-89
2023/11/03 10:34:02;;;;;;;7.18;2.25;;;12.40;99.90;;;;;;5097565;28;20514;-89
2023/11/03 10:36:29;;;;;;;6.25;1.98;;;12.40;99.90;;;;;;5093194;28;20031;-88
2023/11/03 10:38:57;;;;;;;4.72;1.80;;;12.40;99.90;;;;;;5087672;28;20032;-89
2023/11/03 10:41:29;;;;;;;6.93;1.85;;;12.50;99.90;;;;;;5059606;28;20059;-88
2023/11/03 10:44:00;;;;;;;4.22;1.65;;;12.50;99.90;;;;;;5085166;28;20031;-88
2023/11/03 10:46:51;;;;;;;7.15;1.75;;;12.50;99.90;;;;;;5095943;28;20036;-89
2023/11/03 10:49:25;;;;;;;5.80;1.73;;;12.40;99.90;;;;;;5095135;28;20048;-89
2023/11/03 10:52:10;;;;;;;9.15;1.70;;;12.50;99.90;;;;;;5078934;28;20029;-89
2023/11/03 10:54:45;;;;;;;5.78;1.73;;;12.50;99.90;;;;;;5092030;28;20024;-87
2023/11/03 10:57:12;;;;;;;8.85;2.25;;;12.50;99.90;;;;;;5095850;28;20032;-87
2023/11/03 10:59:43;;;;;;;8.95;2.47;;;12.50;99.90;;;;;;5095371;28;20024;-87
2023/11/03 11:02:22;;;;;;;5.00;1.60;;;12.50;99.90;;;;;;5095514;28;20073;-88
2023/11/03 11:05:09;;;;;;;4.25;1.35;;;12.50;99.90;;;;;;5095872;28;20028;-89
2023/11/03 11:07:41;;;;;;;7.13;1.90;;;12.50;99.90;;;;;;5097164;28;20046;-90
2023/11/03 11:10:08;;;;;;;6.60;1.83;;;12.50;99.90;;;;;;5101969;28;20005;-88
2023/11/03 11:12:49;;;;;;;6.13;1.95;;;12.50;99.90;;;;;;5108034;28;20012;-88
2023/11/03 11:15:21;;;;;;;7.20;1.88;;;12.60;99.90;;;;;;5120028;28;20012;-91
2023/11/03 11:17:46;;;;;;;6.38;1.80;;;12.60;99.90;;;;;;5120083;28;20076;-89
2023/11/03 11:20:21;;;;;;;6.15;1.85;;;12.70;99.90;;;;;;5119010;28;20035;-89
2023/11/03 11:22:52;;;;;;;4.80;1.95;;;12.70;99.90;;;;;;5086209;28;20020;-90
2023/11/03 11:25:21;;;;;;;5.20;1.88;;;12.70;99.90;;;;;;5094373;28;20041;-90
2023/11/03 11:27:52;;;;;;;8.23;1.80;;;12.80;99.90;;;;;;5076100;28;20033;-89
2023/11/03 11:30:18;;;;;;;5.78;1.77;;;12.80;99.90;;;;;;5075186;28;20024;-89
2023/11/03 11:32:54;;;;;;;5.05;1.50;;;12.80;99.90;;;;;;5083537;28;20099;-89
2023/11/03 11:35:27;;;;;;;7.38;2.42;;;12.90;99.90;;;;;;5094907;28;20020;-88
2023/11/03 11:37:53;;;;;;;8.75;2.33;;;12.90;99.90;;;;;;5095060;28;20057;-89
2023/11/03 11:40:24;;;;;;;6.93;1.88;;;13.00;99.90;;;;;;5092418;28;20020;-88
2023/11/03 11:42:49;;;;;;;4.07;1.45;;;13.00;99.90;;;;;;5063887;28;20032;-88
2023/11/03 11:45:15;;;;;;;5.40;1.60;;;13.00;99.90;;;;;;5075479;28;20158;-89
2023/11/03 11:47:44;;;;;;;6.13;1.75;;;13.00;99.90;;;;;;5074968;28;20059;-89
2023/11/03 11:50:15;;;;;;;3.33;1.52;;;13.10;99.90;;;;;;5091214;28;20028;-89
2023/11/03 11:52:42;;;;;;;6.00;1.67;;;13.10;99.90;;;;;;5088269;28;20545;-88
2023/11/03 11:55:09;;;;;;;5.90;2.08;;;13.20;99.90;;;;;;5085111;28;20098;-89
2023/11/03 11:57:40;;;;;;;4.68;1.55;;;13.20;99.90;;;;;;5078591;28;20024;-88
2023/11/03 12:00:07;;;;;;;5.95;1.88;;;13.20;99.90;;;;;;5084492;28;20016;-89
2023/11/03 12:02:33;;;;;;;5.22;1.70;;;13.30;99.90;;;;;;5094194;28;20024;-87
2023/11/03 12:05:04;;;;;;;6.65;1.98;;;13.30;99.90;;;;;;5077697;28;20479;-87
2023/11/03 12:07:30;;;;;;;4.90;1.40;;;13.30;99.90;;;;;;5082621;28;20066;-87
2023/11/03 12:09:59;;;;;;;7.05;1.45;;;13.40;99.90;;;;;;5058640;28;20279;-88
2023/11/03 12:12:25;;;;;;;6.15;2.10;;;13.40;99.90;;;;;;5083335;28;20453;-88
2023/11/03 12:14:55;;;;;;;7.43;1.98;;;13.50;99.70;;;;;;5083661;28;20107;-89
2023/11/03 12:17:21;;;;;;;10.00;2.37;;;13.40;99.60;;;;;;5094718;28;20422;-89
2023/11/03 12:19:47;;;;;;;4.47;1.50;;;13.40;99.50;;;;;;5094342;28;20028;-88
2023/11/03 12:22:23;;;;;;;6.13;1.60;;;13.40;99.50;;;;;;5094122;28;20091;-88
2023/11/03 12:24:53;;;;;;;5.35;1.58;;;13.40;99.50;;;;;;5095076;28;20460;-89
2023/11/03 12:27:20;;;;;;;5.95;2.05;;;13.40;99.60;;;;;;5089783;28;20479;-88
2023/11/03 12:29:48;;;;;;;8.98;1.83;;;13.40;99.50;;;;;;5073957;28;20078;-88
2023/11/03 12:32:14;;;;;;;5.60;1.60;;;13.50;99.50;;;;;;5088910;28;20024;-88
2023/11/03 12:34:43;;;;;;;7.07;1.73;;;13.50;99.60;;;;;;5093579;28;20020;-90
2023/11/03 12:37:11;;;;;;;6.63;1.50;;;13.50;99.30;;;;;;5094298;28;20024;-88
2023/11/03 12:39:52;;;;;;;6.72;1.85;;;13.50;99.20;;;;;;5094931;28;20012;-88
2023/11/03 12:42:20;;;;;;;7.82;1.70;;;13.50;99.20;;;;;;5073913;28;20031;-87
2023/11/03 12:44:56;;;;;;;5.70;1.88;;;13.60;99.20;;;;;;5073656;28;20020;-89
2023/11/03 12:47:39;;;;;;;4.40;1.55;;;13.60;99.20;;;;;;5080687;28;20168;-88
2023/11/03 12:50:18;;;;;;;5.50;1.65;;;13.60;99.20;;;;;;5110809;28;20035;-88
2023/11/03 12:53:11;;;;;;;4.70;1.33;;;13.60;99.10;;;;;;5118493;28;20241;-89
2023/11/03 12:55:37;;;;;;;6.43;1.48;;;13.60;98.80;;;;;;5104554;28;20024;-89